Time;durP1;ratioP1;P1;durP2;ratioP2;P2;SDS_P1;SDS_P2;PMS_P1;PMS_P2;Temp;Humidity;BMP_temperature;BMP_pressure;BME280_temperature;BME280_humidity;BME280_pressure;Samples;Min_cycle;Max_cycle;Signal;HPM_P1;HPM_P2
2021/04/10 00:01:49;;;;;;;1.20;1.03;;;;;;;;;;5013052;28;20781;-67
2021/04/10 00:04:15;;;;;;;1.97;0.80;;;;;;;;;;5013586;28;20429;-68
2021/04/10 00:06:42;;;;;;;3.77;1.37;;;;;;;;;;5009069;28;20519;-69
2021/04/10 00:09:08;;;;;;;0.83;0.70;;;;;;;;;;5013221;28;20876;-68
2021/04/10 00:11:35;;;;;;;0.90;0.67;;;;;;;;;;5012586;28;20404;-68
2021/04/10 00:14:02;;;;;;;0.77;0.57;;;;;;;;;;5008071;28;20981;-69
2021/04/10 00:16:28;;;;;;;0.80;0.60;;;;;;;;;;5013446;28;20874;-69
2021/04/10 00:18:54;;;;;;;0.70;0.60;;;;;;;;;;4995639;28;20392;-69
2021/04/10 00:21:20;;;;;;;1.63;0.90;;;;;;;;;;5012596;28;20403;-69
2021/04/10 00:23:45;;;;;;;4.10;1.80;;;;;;;;;;5013243;28;20791;-68
2021/04/10 00:26:13;;;;;;;0.70;0.53;;;;;;;;;;5013245;28;20435;-68
2021/04/10 00:28:39;;;;;;;1.20;0.87;;;;;;;;;;5013344;28;20379;-67
2021/04/10 00:31:06;;;;;;;0.73;0.57;;;;;;;;;;5012534;28;20775;-68
2021/04/10 00:33:33;;;;;;;0.80;0.60;;;;;;;;;;4996115;28;20491;-68
2021/04/10 00:35:58;;;;;;;1.50;1.20;;;;;;;;;;4997586;28;20408;-68
2021/04/10 00:38:24;;;;;;;0.90;0.60;;;;;;;;;;5012649;28;20531;-66
2021/04/10 00:40:50;;;;;;;1.10;0.80;;;;;;;;;;5011638;28;20408;-68
2021/04/10 00:43:16;;;;;;;1.00;0.83;;;;;;;;;;5012041;28;20405;-69
2021/04/10 00:45:42;;;;;;;1.10;0.70;;;;;;;;;;5013042;28;20882;-68
2021/04/10 00:48:08;;;;;;;0.70;0.50;;;;;;;;;;5012440;28;20799;-68
2021/04/10 00:50:34;;;;;;;0.70;0.50;;;;;;;;;;5012308;28;20409;-68
2021/04/10 00:53:02;;;;;;;1.23;1.13;;;;;;;;;;5011933;28;20540;-67
2021/04/10 00:55:29;;;;;;;0.70;0.50;;;;;;;;;;5011785;28;20482;-67
2021/04/10 00:57:55;;;;;;;0.87;0.70;;;;;;;;;;5012643;28;20491;-68
2021/04/10 01:00:21;;;;;;;0.80;0.60;;;;;;;;;;5012317;28;20992;-68
2021/04/10 01:02:47;;;;;;;1.87;0.80;;;;;;;;;;5011612;28;20546;-67
2021/04/10 01:05:14;;;;;;;0.80;0.60;;;;;;;;;;5020435;28;20478;-68
2021/04/10 01:07:40;;;;;;;1.73;0.80;;;;;;;;;;5031846;28;20427;-68
2021/04/10 01:10:06;;;;;;;3.10;1.40;;;;;;;;;;5021346;28;20401;-68
2021/04/10 01:12:35;;;;;;;1.10;1.00;;;;;;;;;;5011552;28;20466;-68
2021/04/10 01:15:20;;;;;;;1.17;0.60;;;;;;;;;;5011349;28;20379;-68
2021/04/10 01:18:03;;;;;;;1.17;1.00;;;;;;;;;;5012003;28;20427;-68
2021/04/10 01:20:46;;;;;;;1.10;1.00;;;;;;;;;;5011897;28;20455;-68
2021/04/10 01:23:30;;;;;;;0.90;0.70;;;;;;;;;;5011684;28;20383;-69
2021/04/10 01:25:56;;;;;;;0.80;0.63;;;;;;;;;;5012185;28;20408;-69
2021/04/10 01:28:25;;;;;;;0.80;0.60;;;;;;;;;;5012310;28;20394;-69
2021/04/10 01:30:51;;;;;;;2.70;0.80;;;;;;;;;;5012112;28;20969;-68
2021/04/10 01:33:19;;;;;;;0.80;0.50;;;;;;;;;;5011604;28;20467;-68
2021/04/10 01:35:48;;;;;;;1.00;0.77;;;;;;;;;;5011969;28;20957;-68
2021/04/10 01:38:15;;;;;;;0.70;0.47;;;;;;;;;;5045192;22;20502;-73
2021/04/10 01:40:42;;;;;;;0.70;0.40;;;;;;;;;;5054834;28;20507;-74
2021/04/10 01:43:08;;;;;;;0.70;0.50;;;;;;;;;;5052686;28;20542;-72
2021/04/10 01:45:35;;;;;;;7.60;1.20;;;;;;;;;;5051733;28;20912;-72
2021/04/10 01:48:09;;;;;;;0.70;0.50;;;;;;;;;;5051746;28;20475;-72
2021/04/10 01:50:36;;;;;;;0.70;0.50;;;;;;;;;;5050310;28;20419;-72
2021/04/10 01:53:02;;;;;;;1.10;0.70;;;;;;;;;;5051281;28;20816;-72
2021/04/10 01:55:28;;;;;;;0.90;0.70;;;;;;;;;;5051102;28;20399;-71
2021/04/10 01:57:54;;;;;;;1.63;0.70;;;;;;;;;;5052160;28;20479;-72
2021/04/10 02:00:22;;;;;;;1.00;0.77;;;;;;;;;;5052935;28;20484;-73
2021/04/10 02:02:48;;;;;;;1.23;0.50;;;;;;;;;;5054558;28;20418;-72
2021/04/10 02:05:16;;;;;;;2.23;1.10;;;;;;;;;;5046481;28;20454;-72
2021/04/10 02:07:43;;;;;;;1.17;0.90;;;;;;;;;;5052335;28;20466;-74
2021/04/10 02:10:10;;;;;;;2.23;1.17;;;;;;;;;;5034013;28;20469;-73
2021/04/10 02:12:36;;;;;;;0.70;0.50;;;;;;;;;;5050982;28;20596;-73
2021/04/10 02:15:03;;;;;;;1.20;1.10;;;;;;;;;;5050603;28;20407;-72
2021/04/10 02:17:29;;;;;;;0.77;0.53;;;;;;;;;;5033830;28;20771;-73
2021/04/10 02:19:56;;;;;;;1.10;0.77;;;;;;;;;;5033129;28;20438;-74
2021/04/10 02:22:23;;;;;;;0.77;0.53;;;;;;;;;;5050915;28;20802;-73
2021/04/10 02:24:50;;;;;;;4.07;1.20;;;;;;;;;;5033093;28;20509;-73
2021/04/10 02:27:16;;;;;;;0.80;0.60;;;;;;;;;;5051139;28;20506;-73
2021/04/10 02:29:44;;;;;;;0.90;0.63;;;;;;;;;;5051009;28;20423;-73
2021/04/10 02:32:17;;;;;;;0.70;0.50;;;;;;;;;;5032676;28;20545;-72
2021/04/10 02:34:46;;;;;;;1.40;0.73;;;;;;;;;;5051536;28;20447;-75
2021/04/10 02:37:12;;;;;;;0.70;0.60;;;;;;;;;;5056126;28;20422;-79
2021/04/10 02:39:40;;;;;;;0.73;0.57;;;;;;;;;;5061998;28;20454;-78
2021/04/10 02:42:07;;;;;;;1.00;0.63;;;;;;;;;;5070060;28;20406;-78
2021/04/10 02:44:38;;;;;;;0.73;0.47;;;;;;;;;;5054571;28;20475;-76
2021/04/10 02:47:06;;;;;;;1.10;0.63;;;;;;;;;;5050069;28;20395;-79
2021/04/10 02:49:35;;;;;;;0.80;0.70;;;;;;;;;;5048599;28;20428;-74
2021/04/10 02:52:02;;;;;;;1.67;1.57;;;;;;;;;;5050916;28;20398;-74
2021/04/10 02:54:36;;;;;;;1.90;1.40;;;;;;;;;;5050979;28;20486;-78
2021/04/10 02:57:06;;;;;;;1.90;1.50;;;;;;;;;;5051706;28;20437;-76
2021/04/10 02:59:34;;;;;;;2.30;0.97;;;;;;;;;;5050801;28;20572;-76
2021/04/10 03:02:00;;;;;;;1.03;0.70;;;;;;;;;;5050891;28;20766;-73
2021/04/10 03:04:26;;;;;;;1.00;0.90;;;;;;;;;;5050189;28;20395;-76
2021/04/10 03:06:52;;;;;;;2.60;1.70;;;;;;;;;;5054548;28;20395;-74
2021/04/10 03:09:21;;;;;;;3.60;0.97;;;;;;;;;;5038008;28;20422;-76
2021/04/10 03:11:47;;;;;;;0.80;0.80;;;;;;;;;;5054579;28;20787;-74
2021/04/10 03:14:13;;;;;;;1.60;0.80;;;;;;;;;;5054499;28;21013;-75
2021/04/10 03:16:40;;;;;;;1.30;0.80;;;;;;;;;;5059562;28;20475;-78
2021/04/10 03:19:06;;;;;;;1.03;0.70;;;;;;;;;;5061915;28;20489;-76
2021/04/10 03:21:32;;;;;;;0.70;0.50;;;;;;;;;;5037209;28;20407;-72
2021/04/10 03:23:58;;;;;;;1.00;0.73;;;;;;;;;;5054633;28;20418;-73
2021/04/10 03:26:25;;;;;;;0.70;0.50;;;;;;;;;;5036467;28;20438;-73
2021/04/10 03:28:51;;;;;;;7.87;1.07;;;;;;;;;;5054495;28;20429;-72
2021/04/10 03:31:18;;;;;;;0.70;0.50;;;;;;;;;;5054045;28;20378;-73
2021/04/10 03:33:44;;;;;;;1.47;1.37;;;;;;;;;;5036650;28;20465;-74
2021/04/10 03:36:10;;;;;;;0.80;0.60;;;;;;;;;;5036316;28;20418;-74
2021/04/10 03:38:39;;;;;;;0.70;0.50;;;;;;;;;;5036333;28;20776;-73
2021/04/10 03:41:05;;;;;;;3.30;1.10;;;;;;;;;;5054017;28;20430;-74
2021/04/10 03:43:34;;;;;;;0.97;0.87;;;;;;;;;;5054241;28;20406;-74
2021/04/10 03:46:02;;;;;;;0.83;0.70;;;;;;;;;;5054319;28;20407;-75
2021/04/10 03:48:31;;;;;;;1.20;0.90;;;;;;;;;;5054622;28;20897;-73
2021/04/10 03:50:58;;;;;;;0.80;0.77;;;;;;;;;;5035981;28;21001;-73
2021/04/10 03:53:24;;;;;;;0.93;0.57;;;;;;;;;;5054010;28;20549;-73
2021/04/10 03:55:50;;;;;;;1.97;0.77;;;;;;;;;;5036347;28;20517;-74
2021/04/10 03:58:16;;;;;;;11.43;1.13;;;;;;;;;;5054552;28;21129;-74
2021/04/10 04:00:42;;;;;;;1.30;0.90;;;;;;;;;;5035772;28;20430;-74
2021/04/10 04:03:08;;;;;;;0.70;0.50;;;;;;;;;;5053621;28;20892;-74
2021/04/10 04:05:34;;;;;;;0.80;0.47;;;;;;;;;;5053957;28;20418;-74
2021/04/10 04:08:00;;;;;;;4.60;1.17;;;;;;;;;;5053995;28;20493;-74
2021/04/10 04:10:29;;;;;;;0.87;0.70;;;;;;;;;;5053910;28;20451;-74
2021/04/10 04:12:54;;;;;;;0.80;0.60;;;;;;;;;;5053742;28;20474;-75
2021/04/10 04:15:20;;;;;;;1.80;1.23;;;;;;;;;;5053421;28;21034;-74
2021/04/10 04:17:46;;;;;;;1.07;0.80;;;;;;;;;;5053755;28;20410;-74
2021/04/10 04:20:13;;;;;;;0.80;0.40;;;;;;;;;;5049183;28;20465;-73
2021/04/10 04:22:39;;;;;;;0.90;0.57;;;;;;;;;;5052558;28;20458;-73
2021/04/10 04:25:07;;;;;;;0.77;0.53;;;;;;;;;;5056379;28;20574;-73
2021/04/10 04:27:33;;;;;;;1.23;0.93;;;;;;;;;;5042326;28;20411;-73
2021/04/10 04:29:59;;;;;;;2.50;0.70;;;;;;;;;;5042709;28;20427;-74
2021/04/10 04:32:25;;;;;;;1.10;0.50;;;;;;;;;;5023980;28;20451;-74
2021/04/10 04:34:51;;;;;;;1.10;0.63;;;;;;;;;;5036746;28;20495;-72
2021/04/10 04:37:17;;;;;;;0.93;0.70;;;;;;;;;;5024613;28;20935;-73
2021/04/10 04:39:43;;;;;;;2.07;1.23;;;;;;;;;;5057058;28;20419;-73
2021/04/10 04:42:09;;;;;;;0.70;0.50;;;;;;;;;;5040813;28;20912;-73
2021/04/10 04:44:35;;;;;;;1.00;0.60;;;;;;;;;;5068290;28;20401;-76
2021/04/10 04:47:01;;;;;;;1.30;1.17;;;;;;;;;;5080998;28;20429;-77
2021/04/10 04:49:27;;;;;;;4.10;1.80;;;;;;;;;;5051915;28;20457;-75
2021/04/10 04:51:54;;;;;;;0.80;0.80;;;;;;;;;;5065577;28;20406;-73
2021/04/10 04:54:22;;;;;;;0.90;0.53;;;;;;;;;;5064908;28;20418;-72
2021/04/10 04:56:48;;;;;;;1.00;0.53;;;;;;;;;;5064364;28;20553;-73
2021/04/10 04:59:17;;;;;;;0.70;0.50;;;;;;;;;;5061734;28;20422;-72
2021/04/10 05:01:45;;;;;;;0.70;0.53;;;;;;;;;;5062102;28;20403;-72
2021/04/10 05:04:12;;;;;;;0.70;0.50;;;;;;;;;;5059593;28;20430;-72
2021/04/10 05:06:38;;;;;;;9.00;2.13;;;;;;;;;;5053013;28;20413;-72
2021/04/10 05:09:05;;;;;;;1.20;0.70;;;;;;;;;;5052862;28;20418;-73
2021/04/10 05:11:31;;;;;;;0.70;0.50;;;;;;;;;;5052460;28;20397;-73
2021/04/10 05:13:56;;;;;;;0.73;0.53;;;;;;;;;;5052265;28;20565;-72
2021/04/10 05:16:22;;;;;;;1.00;0.60;;;;;;;;;;5052614;28;20405;-73
2021/04/10 05:18:51;;;;;;;1.40;0.67;;;;;;;;;;5052856;28;20402;-72
2021/04/10 05:21:17;;;;;;;4.83;1.70;;;;;;;;;;5052118;28;20399;-74
2021/04/10 05:23:43;;;;;;;0.80;0.70;;;;;;;;;;5052612;28;20915;-75
2021/04/10 05:26:09;;;;;;;2.00;0.70;;;;;;;;;;5055698;28;20485;-72
2021/04/10 05:28:35;;;;;;;0.80;0.60;;;;;;;;;;5059747;28;20506;-73
2021/04/10 05:31:03;;;;;;;0.80;0.60;;;;;;;;;;5056735;28;20405;-72
2021/04/10 05:33:30;;;;;;;1.17;1.07;;;;;;;;;;5040346;28;20433;-74
2021/04/10 05:35:56;;;;;;;1.43;1.07;;;;;;;;;;5041977;28;20422;-74
2021/04/10 05:38:22;;;;;;;0.70;0.50;;;;;;;;;;5037702;28;20402;-74
2021/04/10 05:40:48;;;;;;;0.80;0.60;;;;;;;;;;5051864;28;20523;-72
2021/04/10 05:43:14;;;;;;;0.70;0.40;;;;;;;;;;5053641;28;20438;-74
2021/04/10 05:45:42;;;;;;;0.70;0.47;;;;;;;;;;5039536;28;20411;-74
2021/04/10 05:48:08;;;;;;;0.90;0.67;;;;;;;;;;5054506;28;20412;-76
2021/04/10 05:50:34;;;;;;;1.10;1.00;;;;;;;;;;5063836;28;20475;-75
2021/04/10 05:53:03;;;;;;;1.93;1.23;;;;;;;;;;5055581;28;20515;-75
2021/04/10 05:55:29;;;;;;;2.40;1.43;;;;;;;;;;5034223;28;20772;-75
2021/04/10 05:57:55;;;;;;;0.90;0.70;;;;;;;;;;5052714;28;20403;-75
2021/04/10 06:00:21;;;;;;;5.97;1.63;;;;;;;;;;5038393;28;20487;-76
2021/04/10 06:02:50;;;;;;;0.80;0.57;;;;;;;;;;5055854;28;20411;-74
2021/04/10 06:05:18;;;;;;;1.20;0.83;;;;;;;;;;5055349;28;20403;-76
2021/04/10 06:07:44;;;;;;;5.70;1.30;;;;;;;;;;5034581;28;20406;-74
2021/04/10 06:10:10;;;;;;;0.77;0.53;;;;;;;;;;5051854;28;20432;-73
2021/04/10 06:12:36;;;;;;;0.70;0.50;;;;;;;;;;5055929;28;20470;-78
2021/04/10 06:15:03;;;;;;;0.90;0.60;;;;;;;;;;5055250;28;20414;-77
2021/04/10 06:17:30;;;;;;;0.70;0.50;;;;;;;;;;5055694;28;20406;-78
2021/04/10 06:19:56;;;;;;;0.70;0.40;;;;;;;;;;5054949;28;20415;-77
2021/04/10 06:22:22;;;;;;;1.23;1.13;;;;;;;;;;5036039;28;20403;-74
2021/04/10 06:24:48;;;;;;;0.70;0.40;;;;;;;;;;5038571;28;20471;-79
2021/04/10 06:27:14;;;;;;;0.70;0.40;;;;;;;;;;5039303;28;20873;-80
2021/04/10 06:29:40;;;;;;;0.80;0.50;;;;;;;;;;5056925;28;20442;-77
2021/04/10 06:32:07;;;;;;;1.43;0.60;;;;;;;;;;5054708;28;20418;-72
2021/04/10 06:34:35;;;;;;;0.70;0.40;;;;;;;;;;5054975;28;20491;-71
2021/04/10 06:37:01;;;;;;;0.70;0.50;;;;;;;;;;5053930;28;20438;-74
2021/04/10 06:39:28;;;;;;;0.70;0.40;;;;;;;;;;5055962;28;20407;-78
2021/04/10 06:41:54;;;;;;;0.70;0.43;;;;;;;;;;5067072;23;20576;-69
2021/04/10 06:44:20;;;;;;;1.20;0.60;;;;;;;;;;5065852;28;20434;-68
2021/04/10 06:46:48;;;;;;;1.63;0.83;;;;;;;;;;5068843;28;20402;-68
2021/04/10 06:49:15;;;;;;;0.70;0.40;;;;;;;;;;5065350;28;20445;-67
2021/04/10 06:51:42;;;;;;;3.03;1.80;;;;;;;;;;5049115;28;20844;-69
2021/04/10 06:54:08;;;;;;;0.70;0.50;;;;;;;;;;5048850;28;20820;-69
2021/04/10 06:56:37;;;;;;;0.90;0.70;;;;;;;;;;5092228;22;21226;-71
2021/04/10 06:59:11;;;;;;;1.13;0.90;;;;;;;;;;5074568;28;20372;-72
2021/04/10 07:01:37;;;;;;;0.83;0.60;;;;;;;;;;5062132;28;20892;-71
2021/04/10 07:04:03;;;;;;;0.70;0.40;;;;;;;;;;5069822;28;20403;-71
2021/04/10 07:06:31;;;;;;;8.53;1.03;;;;;;;;;;5065886;28;20445;-72
2021/04/10 07:08:57;;;;;;;0.70;0.60;;;;;;;;;;5031720;28;20394;-71
2021/04/10 07:11:23;;;;;;;0.70;0.40;;;;;;;;;;5059824;28;20382;-71
2021/04/10 07:13:49;;;;;;;1.20;0.50;;;;;;;;;;5051487;28;20448;-72
2021/04/10 07:16:15;;;;;;;1.10;0.70;;;;;;;;;;5064745;28;20491;-71
2021/04/10 07:18:41;;;;;;;0.90;0.67;;;;;;;;;;5042324;28;20568;-70
2021/04/10 07:21:17;;;;;;;0.70;0.40;;;;;;;;;;5060144;28;20376;-70
2021/04/10 07:23:56;;;;;;;0.70;0.50;;;;;;;;;;5041242;28;20481;-71
2021/04/10 07:26:42;;;;;;;0.70;0.50;;;;;;;;;;5047634;28;20441;-72
2021/04/10 07:29:28;;;;;;;3.90;0.80;;;;;;;;;;5061463;28;20472;-72
2021/04/10 07:31:54;;;;;;;1.20;0.73;;;;;;;;;;5065789;28;20937;-71
2021/04/10 07:34:21;;;;;;;0.80;0.80;;;;;;;;;;5047191;28;20546;-73
2021/04/10 07:37:00;;;;;;;0.80;0.60;;;;;;;;;;5055330;28;20954;-70
2021/04/10 07:39:27;;;;;;;0.80;0.50;;;;;;;;;;5054875;28;20418;-72
2021/04/10 07:41:59;;;;;;;0.70;0.50;;;;;;;;;;5050148;28;20766;-69
2021/04/10 07:44:41;;;;;;;4.30;1.00;;;;;;;;;;5051939;28;20430;-72
2021/04/10 07:47:08;;;;;;;2.20;0.87;;;;;;;;;;5053435;28;20424;-72
2021/04/10 07:49:35;;;;;;;0.80;0.50;;;;;;;;;;5053488;28;20417;-71
2021/04/10 07:52:04;;;;;;;0.70;0.47;;;;;;;;;;5046224;28;20421;-72
2021/04/10 07:54:31;;;;;;;0.70;0.50;;;;;;;;;;5047851;28;20445;-71
2021/04/10 07:56:58;;;;;;;6.43;0.90;;;;;;;;;;5048949;28;21597;-72
2021/04/10 07:59:25;;;;;;;1.50;1.00;;;;;;;;;;5051877;28;20520;-73
2021/04/10 08:01:51;;;;;;;0.90;0.80;;;;;;;;;;5062147;28;20445;-71
2021/04/10 08:04:20;;;;;;;0.70;0.40;;;;;;;;;;5063282;28;20413;-71
2021/04/10 08:06:55;;;;;;;5.67;1.00;;;;;;;;;;5039171;28;20434;-73
2021/04/10 08:09:48;;;;;;;0.80;0.60;;;;;;;;;;5056984;28;20914;-71
2021/04/10 08:12:14;;;;;;;0.80;0.50;;;;;;;;;;5054990;28;20403;-71
2021/04/10 08:14:44;;;;;;;2.30;0.60;;;;;;;;;;5039562;28;20883;-71
2021/04/10 08:17:10;;;;;;;0.90;0.63;;;;;;;;;;5038823;28;20425;-71
2021/04/10 08:19:36;;;;;;;0.80;0.60;;;;;;;;;;5051110;28;20413;-70
2021/04/10 08:22:03;;;;;;;2.10;0.50;;;;;;;;;;5052762;28;20406;-70
2021/04/10 08:24:31;;;;;;;0.70;0.40;;;;;;;;;;5050738;28;20501;-71
2021/04/10 08:26:59;;;;;;;2.30;0.73;;;;;;;;;;5057207;28;20414;-72
2021/04/10 08:29:26;;;;;;;4.77;1.27;;;;;;;;;;5063657;28;20406;-71
2021/04/10 08:31:52;;;;;;;1.63;0.77;;;;;;;;;;5052374;28;20910;-71
2021/04/10 08:34:18;;;;;;;0.70;0.40;;;;;;;;;;5052732;28;20960;-71
2021/04/10 08:36:47;;;;;;;1.23;0.80;;;;;;;;;;5053542;28;20922;-69
2021/04/10 08:39:17;;;;;;;0.77;0.60;;;;;;;;;;5053069;28;20398;-69
2021/04/10 08:41:43;;;;;;;1.30;0.80;;;;;;;;;;5052796;28;20385;-70
2021/04/10 08:44:10;;;;;;;1.00;0.70;;;;;;;;;;5052718;28;20922;-70
2021/04/10 08:46:38;;;;;;;1.87;0.90;;;;;;;;;;5053466;28;20466;-70
2021/04/10 08:49:05;;;;;;;1.90;1.10;;;;;;;;;;5053098;28;20547;-70
2021/04/10 08:51:32;;;;;;;1.33;1.00;;;;;;;;;;5052604;28;20369;-71
2021/04/10 08:53:59;;;;;;;1.33;0.77;;;;;;;;;;5053234;28;20457;-71
2021/04/10 08:56:26;;;;;;;0.80;0.70;;;;;;;;;;5050480;28;20446;-71
2021/04/10 08:58:52;;;;;;;2.03;0.60;;;;;;;;;;5058504;28;20437;-71
2021/04/10 09:01:20;;;;;;;3.70;0.90;;;;;;;;;;5060362;28;20958;-71
2021/04/10 09:03:46;;;;;;;3.87;1.17;;;;;;;;;;5065662;28;20377;-71
2021/04/10 09:06:18;;;;;;;5.90;0.90;;;;;;;;;;5048000;28;20548;-70
2021/04/10 09:08:44;;;;;;;1.07;0.83;;;;;;;;;;5061375;28;20420;-69
2021/04/10 09:11:19;;;;;;;1.63;0.93;;;;;;;;;;5064652;28;20377;-71
2021/04/10 09:13:48;;;;;;;1.10;0.60;;;;;;;;;;5057561;28;20455;-72
2021/04/10 09:16:20;;;;;;;1.03;0.90;;;;;;;;;;5052189;28;20502;-71
2021/04/10 09:19:04;;;;;;;0.83;0.60;;;;;;;;;;5053383;28;20452;-71
2021/04/10 09:21:36;;;;;;;0.80;0.60;;;;;;;;;;5043349;28;20460;-70
2021/04/10 09:24:22;;;;;;;1.07;0.73;;;;;;;;;;5048674;28;20437;-69
2021/04/10 09:26:57;;;;;;;0.80;0.60;;;;;;;;;;5035224;28;20908;-70
2021/04/10 09:29:28;;;;;;;2.30;0.80;;;;;;;;;;5048489;28;20388;-69
2021/04/10 09:31:59;;;;;;;0.77;0.57;;;;;;;;;;5038970;28;20450;-70
2021/04/10 09:34:48;;;;;;;4.53;0.83;;;;;;;;;;5028923;28;20546;-69
2021/04/10 09:37:20;;;;;;;0.87;0.60;;;;;;;;;;5047428;28;20402;-70
2021/04/10 09:40:04;;;;;;;1.67;0.70;;;;;;;;;;5041539;28;20725;-70
2021/04/10 09:42:44;;;;;;;1.00;0.60;;;;;;;;;;5046426;28;20785;-71
2021/04/10 09:45:10;;;;;;;3.47;0.80;;;;;;;;;;5051159;28;20480;-70
2021/04/10 09:48:01;;;;;;;0.70;0.50;;;;;;;;;;5051023;28;20403;-69
2021/04/10 09:50:37;;;;;;;5.63;1.50;;;;;;;;;;5056331;28;20406;-71
2021/04/10 09:53:05;;;;;;;1.00;0.90;;;;;;;;;;5061672;28;20815;-71
2021/04/10 09:55:38;;;;;;;1.57;1.03;;;;;;;;;;5044656;28;21034;-70
2021/04/10 09:58:05;;;;;;;0.80;0.70;;;;;;;;;;5041428;28;20918;-72
2021/04/10 10:00:31;;;;;;;0.80;0.70;;;;;;;;;;5040501;28;20492;-70
2021/04/10 10:02:58;;;;;;;0.93;0.60;;;;;;;;;;5046480;28;20379;-70
2021/04/10 10:05:25;;;;;;;1.13;0.80;;;;;;;;;;5052327;28;20487;-71
2021/04/10 10:07:51;;;;;;;0.80;0.53;;;;;;;;;;5049106;28;20946;-71
2021/04/10 10:10:17;;;;;;;2.50;1.57;;;;;;;;;;5055315;28;20422;-71
2021/04/10 10:12:43;;;;;;;2.50;0.90;;;;;;;;;;5044695;28;21211;-71
2021/04/10 10:15:22;;;;;;;3.73;0.60;;;;;;;;;;5053116;28;20428;-70
2021/04/10 10:17:48;;;;;;;0.90;0.53;;;;;;;;;;5056683;28;20919;-69
2021/04/10 10:20:15;;;;;;;1.13;1.00;;;;;;;;;;5041184;28;20490;-71
2021/04/10 10:22:41;;;;;;;0.90;0.60;;;;;;;;;;5046520;28;20414;-71
2021/04/10 10:25:08;;;;;;;0.80;0.60;;;;;;;;;;5044685;28;20463;-70
2021/04/10 10:27:42;;;;;;;1.07;0.60;;;;;;;;;;5040727;28;20399;-69
2021/04/10 10:30:15;;;;;;;0.90;0.60;;;;;;;;;;5039976;28;20378;-70
2021/04/10 10:32:45;;;;;;;1.00;0.60;;;;;;;;;;5036953;28;20449;-70
2021/04/10 10:35:12;;;;;;;0.70;0.47;;;;;;;;;;5047844;28;20417;-72
2021/04/10 10:37:38;;;;;;;0.70;0.50;;;;;;;;;;5060297;28;20410;-70
2021/04/10 10:40:05;;;;;;;4.40;1.27;;;;;;;;;;5064442;28;20464;-71
2021/04/10 10:42:31;;;;;;;1.60;0.80;;;;;;;;;;5062814;28;20516;-70
2021/04/10 10:44:57;;;;;;;2.93;0.70;;;;;;;;;;5050059;28;20515;-69
2021/04/10 10:47:26;;;;;;;0.90;0.80;;;;;;;;;;5050343;28;20393;-70
2021/04/10 10:49:52;;;;;;;3.60;0.77;;;;;;;;;;5032433;28;20453;-71
2021/04/10 10:52:19;;;;;;;0.70;0.50;;;;;;;;;;5049660;28;20403;-71
2021/04/10 10:54:47;;;;;;;1.37;0.80;;;;;;;;;;5051989;28;20401;-71
2021/04/10 10:57:17;;;;;;;0.80;0.60;;;;;;;;;;5060408;28;20403;-72
2021/04/10 10:59:43;;;;;;;1.67;0.60;;;;;;;;;;5059653;28;20369;-71
2021/04/10 11:02:10;;;;;;;0.87;0.60;;;;;;;;;;5057887;28;20426;-72
2021/04/10 11:04:37;;;;;;;1.00;0.90;;;;;;;;;;5069902;28;20943;-72
2021/04/10 11:07:04;;;;;;;0.80;0.50;;;;;;;;;;5070659;28;20398;-71
2021/04/10 11:09:40;;;;;;;0.90;0.70;;;;;;;;;;5031490;28;20414;-72
2021/04/10 11:12:11;;;;;;;2.83;0.90;;;;;;;;;;5056735;28;20391;-72
2021/04/10 11:14:42;;;;;;;0.80;0.60;;;;;;;;;;5041509;28;20427;-71
2021/04/10 11:17:08;;;;;;;1.10;0.80;;;;;;;;;;5062827;28;20464;-71
2021/04/10 11:19:35;;;;;;;1.30;1.17;;;;;;;;;;5061868;28;20371;-72
2021/04/10 11:22:05;;;;;;;2.07;0.93;;;;;;;;;;5068338;28;20373;-69
2021/04/10 11:24:37;;;;;;;0.70;0.50;;;;;;;;;;5045927;28;20414;-71
2021/04/10 11:27:11;;;;;;;3.70;1.10;;;;;;;;;;5054394;28;20414;-72
2021/04/10 11:29:37;;;;;;;1.13;0.70;;;;;;;;;;5033703;28;20390;-72
2021/04/10 11:32:14;;;;;;;0.70;0.50;;;;;;;;;;5051066;28;20418;-70
2021/04/10 11:34:41;;;;;;;0.80;0.60;;;;;;;;;;5040664;28;20414;-72
2021/04/10 11:37:08;;;;;;;5.33;0.97;;;;;;;;;;5067020;28;20373;-71
2021/04/10 11:40:07;;;;;;;7.83;0.60;;;;;;;;;;5058422;28;20406;-71
2021/04/10 11:42:37;;;;;;;0.90;0.57;;;;;;;;;;4998576;28;20411;-69
2021/04/10 11:45:06;;;;;;;0.80;0.67;;;;;;;;;;5056102;28;20821;-72
2021/04/10 11:47:34;;;;;;;0.80;0.70;;;;;;;;;;5054063;28;20391;-72
2021/04/10 11:50:07;;;;;;;8.40;1.90;;;;;;;;;;5053652;28;20377;-72
2021/04/10 11:52:34;;;;;;;1.37;0.93;;;;;;;;;;5058051;28;20849;-72
2021/04/10 11:55:01;;;;;;;0.80;0.60;;;;;;;;;;5064898;28;20441;-72
2021/04/10 11:57:28;;;;;;;1.10;0.70;;;;;;;;;;5056122;28;20400;-72
2021/04/10 12:00:02;;;;;;;1.67;0.80;;;;;;;;;;5073819;28;20380;-72
2021/04/10 12:02:32;;;;;;;0.80;0.60;;;;;;;;;;5072429;28;20872;-72
2021/04/10 12:04:58;;;;;;;1.10;0.87;;;;;;;;;;5073412;28;20447;-72
2021/04/10 12:07:24;;;;;;;0.70;0.50;;;;;;;;;;5064796;28;20904;-70
2021/04/10 12:09:50;;;;;;;5.00;0.83;;;;;;;;;;5051644;28;20390;-70
2021/04/10 12:12:16;;;;;;;1.73;0.80;;;;;;;;;;5044211;28;20426;-70
2021/04/10 12:14:43;;;;;;;2.17;0.90;;;;;;;;;;5053418;28;20888;-70
2021/04/10 12:17:12;;;;;;;0.80;0.77;;;;;;;;;;5053024;28;20706;-71
2021/04/10 12:19:38;;;;;;;2.33;0.83;;;;;;;;;;5047627;28;20966;-69
2021/04/10 12:22:04;;;;;;;3.17;1.00;;;;;;;;;;5028907;28;20457;-70
2021/04/10 12:24:30;;;;;;;1.00;0.80;;;;;;;;;;5043610;28;20450;-70
2021/04/10 12:26:59;;;;;;;1.13;0.87;;;;;;;;;;5026205;28;20920;-71
2021/04/10 12:29:25;;;;;;;1.40;0.80;;;;;;;;;;5042746;28;20412;-70
2021/04/10 12:31:52;;;;;;;0.90;0.57;;;;;;;;;;5043824;28;20412;-71
2021/04/10 12:34:18;;;;;;;0.80;0.53;;;;;;;;;;5046909;28;20522;-70
2021/04/10 12:36:44;;;;;;;1.70;1.17;;;;;;;;;;5044284;28;20434;-69
2021/04/10 12:39:10;;;;;;;1.53;0.60;;;;;;;;;;5045094;28;20476;-72
2021/04/10 12:41:36;;;;;;;2.80;1.03;;;;;;;;;;5041243;28;20396;-69
2021/04/10 12:44:02;;;;;;;1.10;1.00;;;;;;;;;;5049784;28;20840;-69
2021/04/10 12:46:28;;;;;;;1.27;0.70;;;;;;;;;;5047831;28;20401;-68
2021/04/10 12:48:54;;;;;;;0.80;0.67;;;;;;;;;;5043598;28;20410;-69
2021/04/10 12:51:20;;;;;;;3.53;1.93;;;;;;;;;;5044174;28;20449;-70
2021/04/10 12:53:46;;;;;;;0.93;0.70;;;;;;;;;;5044755;28;20546;-68
2021/04/10 12:56:14;;;;;;;1.13;1.03;;;;;;;;;;5072611;22;20481;-72
2021/04/10 12:58:40;;;;;;;0.80;0.70;;;;;;;;;;5075570;28;20391;-72
2021/04/10 13:01:06;;;;;;;1.67;1.57;;;;;;;;;;5068660;28;20482;-72
2021/04/10 13:03:32;;;;;;;1.10;0.77;;;;;;;;;;5072665;28;20449;-71
2021/04/10 13:05:59;;;;;;;15.20;1.30;;;;;;;;;;5070119;28;20448;-65
2021/04/10 13:08:25;;;;;;;1.73;0.83;;;;;;;;;;5081448;28;20379;-66
2021/04/10 13:10:51;;;;;;;1.17;0.70;;;;;;;;;;5073718;28;20376;-71
2021/04/10 13:13:18;;;;;;;0.80;0.60;;;;;;;;;;5076415;28;20446;-72
2021/04/10 13:15:44;;;;;;;2.50;1.77;;;;;;;;;;5069136;28;20441;-71
2021/04/10 13:18:10;;;;;;;0.80;0.73;;;;;;;;;;5077641;28;20418;-70
2021/04/10 13:20:36;;;;;;;1.27;0.80;;;;;;;;;;5074593;28;20409;-70
2021/04/10 13:23:02;;;;;;;11.53;3.70;;;;;;;;;;5054627;28;20789;-69
2021/04/10 13:25:28;;;;;;;0.70;0.50;;;;;;;;;;5075317;28;20429;-69
2021/04/10 13:27:54;;;;;;;0.80;0.60;;;;;;;;;;5072478;28;20403;-71
2021/04/10 13:30:21;;;;;;;0.80;0.63;;;;;;;;;;5075343;28;20406;-71
2021/04/10 13:32:47;;;;;;;4.60;1.20;;;;;;;;;;5074567;28;20882;-71
2021/04/10 13:35:13;;;;;;;0.90;0.70;;;;;;;;;;5072862;28;20472;-70
2021/04/10 13:37:39;;;;;;;3.77;0.90;;;;;;;;;;5073891;28;20402;-69
2021/04/10 13:40:07;;;;;;;0.90;0.70;;;;;;;;;;5072351;28;20405;-71
2021/04/10 13:42:34;;;;;;;1.23;0.87;;;;;;;;;;5060194;28;20437;-71
2021/04/10 13:45:00;;;;;;;0.80;0.50;;;;;;;;;;5059286;28;20445;-71
2021/04/10 13:47:26;;;;;;;1.00;0.80;;;;;;;;;;5073093;28;20490;-70
2021/04/10 13:49:53;;;;;;;2.30;0.90;;;;;;;;;;5065667;28;20496;-72
2021/04/10 13:52:19;;;;;;;3.60;0.90;;;;;;;;;;5071451;28;20422;-73
2021/04/10 13:54:45;;;;;;;8.83;0.90;;;;;;;;;;5072164;28;20402;-71
2021/04/10 13:57:13;;;;;;;4.50;0.80;;;;;;;;;;5066761;28;20446;-72
2021/04/10 13:59:39;;;;;;;1.00;0.90;;;;;;;;;;5074011;28;20401;-72
2021/04/10 14:02:04;;;;;;;1.30;1.10;;;;;;;;;;5077029;28;20477;-73
2021/04/10 14:04:31;;;;;;;1.37;0.60;;;;;;;;;;5072290;28;20434;-73
2021/04/10 14:06:57;;;;;;;3.17;1.10;;;;;;;;;;5075831;28;20458;-71
2021/04/10 14:09:23;;;;;;;1.20;1.00;;;;;;;;;;5074286;28;20521;-71
2021/04/10 14:11:49;;;;;;;0.80;0.60;;;;;;;;;;5072454;28;20516;-69
2021/04/10 14:14:15;;;;;;;1.40;1.10;;;;;;;;;;5072156;28;20636;-71
2021/04/10 14:16:41;;;;;;;1.00;0.60;;;;;;;;;;5070606;28;20460;-72
2021/04/10 14:19:07;;;;;;;0.80;0.60;;;;;;;;;;5070857;28;20901;-72
2021/04/10 14:21:33;;;;;;;0.70;0.57;;;;;;;;;;5073546;28;20392;-72
2021/04/10 14:23:59;;;;;;;2.10;1.23;;;;;;;;;;5050330;28;20404;-72
2021/04/10 14:26:26;;;;;;;3.17;1.33;;;;;;;;;;5067017;28;20396;-72
2021/04/10 14:28:54;;;;;;;0.80;0.57;;;;;;;;;;5070601;28;20408;-72
2021/04/10 14:31:21;;;;;;;1.80;1.27;;;;;;;;;;5070091;28;20381;-72
2021/04/10 14:33:47;;;;;;;2.30;1.20;;;;;;;;;;5070440;28;20424;-71
2021/04/10 14:36:13;;;;;;;1.57;1.03;;;;;;;;;;5076058;28;20433;-72
2021/04/10 14:38:39;;;;;;;5.23;0.90;;;;;;;;;;5074786;28;20410;-71
2021/04/10 14:41:06;;;;;;;1.40;0.80;;;;;;;;;;5072909;28;20406;-72
2021/04/10 14:43:32;;;;;;;1.63;0.77;;;;;;;;;;5070805;28;20391;-72
2021/04/10 14:45:58;;;;;;;1.10;0.90;;;;;;;;;;5073855;28;20790;-70
2021/04/10 14:48:24;;;;;;;0.80;0.60;;;;;;;;;;5069270;28;20410;-74